Time;durP1;ratioP1;P1;durP2;ratioP2;P2;SDS_P1;SDS_P2;PMS_P1;PMS_P2;Temp;Humidity;BMP_temperature;BMP_pressure;BME280_temperature;BME280_humidity;BME280_pressure;Samples;Min_cycle;Max_cycle;Signal;HPM_P1;HPM_P2
2022/08/09 00:01:19;;;;;;;12.02;5.47;;;;;;;;;;5012857;28;20061;-67
2022/08/09 00:03:45;;;;;;;11.80;5.22;;;;;;;;;;5012702;28;20103;-68
2022/08/09 00:06:11;;;;;;;15.77;5.20;;;;;;;;;;5012680;28;20191;-67
2022/08/09 00:08:37;;;;;;;14.13;5.78;;;;;;;;;;5012665;28;20045;-67
2022/08/09 00:11:03;;;;;;;15.50;5.80;;;;;;;;;;5012366;28;20046;-67
2022/08/09 00:13:30;;;;;;;15.43;5.75;;;;;;;;;;5012376;28;20088;-67
2022/08/09 00:15:56;;;;;;;10.77;5.47;;;;;;;;;;5012254;28;20080;-68
2022/08/09 00:18:22;;;;;;;13.63;5.47;;;;;;;;;;5012309;28;20182;-67
2022/08/09 00:20:48;;;;;;;11.15;5.40;;;;;;;;;;5012058;28;20054;-68
2022/08/09 00:23:14;;;;;;;;;;;;;;;;;;5012707;28;20046;-67
2022/08/09 00:25:40;;;;;;;15.05;5.65;;;;;;;;;;5012452;28;19921;-68
2022/08/09 00:28:06;;;;;;;11.63;5.45;;;;;;;;;;5011732;28;20466;-67
2022/08/09 00:30:33;;;;;;;13.63;5.63;;;;;;;;;;5012111;28;20042;-67
2022/08/09 00:32:59;;;;;;;13.30;5.47;;;;;;;;;;5011831;28;20129;-68
2022/08/09 00:35:27;;;;;;;12.77;5.43;;;;;;;;;;5012074;28;20080;-67
2022/08/09 00:37:53;;;;;;;12.68;5.55;;;;;;;;;;4993839;28;20197;-68
2022/08/09 00:40:19;;;;;;;14.13;5.60;;;;;;;;;;5011832;28;20042;-68
2022/08/09 00:42:45;;;;;;;11.73;5.78;;;;;;;;;;5011716;28;20049;-67
2022/08/09 00:45:11;;;;;;;;;;;;;;;;;;5011147;28;20098;-67
2022/08/09 00:47:37;;;;;;;12.80;5.22;;;;;;;;;;5011636;28;20012;-67
2022/08/09 00:50:03;;;;;;;13.88;5.70;;;;;;;;;;5011474;28;20100;-67
2022/08/09 00:52:29;;;;;;;;;;;;;;;;;;5012074;28;20042;-67
2022/08/09 00:54:56;;;;;;;13.02;6.40;;;;;;;;;;5010911;28;19933;-68
2022/08/09 00:57:22;;;;;;;14.00;6.60;;;;;;;;;;5011297;28;20058;-67
2022/08/09 00:59:48;;;;;;;11.57;6.57;;;;;;;;;;4993726;28;20053;-67
2022/08/09 01:02:25;;;;;;;13.75;6.80;;;;;;;;;;5011384;28;20261;-68
2022/08/09 01:04:56;;;;;;;14.05;6.80;;;;;;;;;;5011648;28;20045;-67
2022/08/09 01:07:27;;;;;;;14.70;6.68;;;;;;;;;;5011529;28;20050;-67
2022/08/09 01:10:06;;;;;;;14.77;7.10;;;;;;;;;;4993645;28;20049;-67
2022/08/09 01:12:39;;;;;;;17.85;7.20;;;;;;;;;;5011212;28;20137;-67
2022/08/09 01:15:10;;;;;;;15.30;7.28;;;;;;;;;;5011261;28;20050;-68
2022/08/09 01:17:41;;;;;;;13.75;7.00;;;;;;;;;;5011183;28;20064;-68
2022/08/09 01:20:08;;;;;;;16.27;7.28;;;;;;;;;;5011001;28;20046;-68
2022/08/09 01:22:53;;;;;;;13.70;7.43;;;;;;;;;;5010844;28;20054;-67
2022/08/09 01:25:38;;;;;;;14.68;7.18;;;;;;;;;;4993135;28;20209;-68
2022/08/09 01:28:05;;;;;;;15.43;7.63;;;;;;;;;;4992954;28;20057;-68
2022/08/09 01:30:33;;;;;;;16.00;7.50;;;;;;;;;;4993335;28;20127;-67
2022/08/09 01:33:01;;;;;;;14.40;7.38;;;;;;;;;;5010901;28;20088;-68
2022/08/09 01:35:48;;;;;;;15.90;7.57;;;;;;;;;;4993327;28;20123;-68
2022/08/09 01:38:19;;;;;;;15.52;7.35;;;;;;;;;;5010741;28;20078;-68
2022/08/09 01:40:50;;;;;;;14.52;7.97;;;;;;;;;;5010778;28;20072;-67
2022/08/09 01:43:17;;;;;;;16.20;7.90;;;;;;;;;;4993177;28;20437;-68
2022/08/09 01:45:44;;;;;;;16.15;8.23;;;;;;;;;;5010584;28;20148;-67
2022/08/09 01:48:10;;;;;;;14.60;7.72;;;;;;;;;;5010548;28;20053;-68
2022/08/09 01:50:38;;;;;;;15.93;8.20;;;;;;;;;;5010387;28;20196;-68
2022/08/09 01:53:04;;;;;;;13.88;7.90;;;;;;;;;;5010204;28;20086;-67
2022/08/09 01:55:32;;;;;;;17.42;8.52;;;;;;;;;;5010351;28;20073;-67
2022/08/09 01:57:59;;;;;;;15.75;8.65;;;;;;;;;;5010413;28;20053;-67
2022/08/09 02:00:26;;;;;;;15.05;8.02;;;;;;;;;;5010551;28;20058;-68
2022/08/09 02:02:53;;;;;;;14.57;7.82;;;;;;;;;;4993012;28;20450;-67
2022/08/09 02:05:20;;;;;;;15.50;8.18;;;;;;;;;;5010533;28;20115;-67
2022/08/09 02:07:49;;;;;;;16.60;8.50;;;;;;;;;;5009928;28;20184;-67
2022/08/09 02:10:17;;;;;;;16.83;8.57;;;;;;;;;;5010536;28;20130;-68
2022/08/09 02:12:44;;;;;;;17.08;8.10;;;;;;;;;;5010815;28;20042;-67
2022/08/09 02:15:11;;;;;;;15.98;7.50;;;;;;;;;;4993089;28;20068;-68
2022/08/09 02:17:38;;;;;;;13.95;8.43;;;;;;;;;;5010611;28;20069;-68
2022/08/09 02:20:08;;;;;;;16.33;7.47;;;;;;;;;;5010320;28;20045;-67
2022/08/09 02:22:34;;;;;;;;;;;;;;;;;;4992976;28;20085;-68
2022/08/09 02:25:01;;;;;;;15.07;7.53;;;;;;;;;;4992509;28;19979;-67
2022/08/09 02:27:29;;;;;;;13.15;7.60;;;;;;;;;;4992324;28;20060;-68
2022/08/09 02:29:55;;;;;;;14.55;7.65;;;;;;;;;;5010438;28;20042;-68
2022/08/09 02:32:23;;;;;;;13.77;8.15;;;;;;;;;;4991999;28;20139;-68
2022/08/09 02:34:51;;;;;;;14.10;7.63;;;;;;;;;;5009745;28;20038;-68
2022/08/09 02:37:20;;;;;;;14.23;7.28;;;;;;;;;;5009823;28;20144;-68
2022/08/09 02:39:49;;;;;;;14.15;7.60;;;;;;;;;;5009893;28;20062;-67
2022/08/09 02:42:21;;;;;;;14.75;7.80;;;;;;;;;;4992270;28;20410;-67
2022/08/09 02:44:50;;;;;;;15.50;8.32;;;;;;;;;;5010034;28;20287;-67
2022/08/09 02:47:16;;;;;;;16.48;7.43;;;;;;;;;;4992284;28;20375;-68
2022/08/09 02:49:56;;;;;;;15.85;7.47;;;;;;;;;;4992057;28;20153;-68
2022/08/09 02:52:25;;;;;;;13.90;7.82;;;;;;;;;;5009718;28;20477;-68
2022/08/09 02:54:52;;;;;;;12.93;7.40;;;;;;;;;;5009773;28;20352;-68
2022/08/09 02:57:22;;;;;;;15.20;7.85;;;;;;;;;;5009988;28;20352;-68
2022/08/09 02:59:49;;;;;;;15.73;7.95;;;;;;;;;;5009960;28;20123;-67
2022/08/09 03:02:16;;;;;;;14.55;7.78;;;;;;;;;;4991652;28;20195;-68
2022/08/09 03:04:42;;;;;;;16.30;7.63;;;;;;;;;;5009524;28;20108;-68
2022/08/09 03:07:09;;;;;;;14.27;7.43;;;;;;;;;;5009574;28;20042;-68
2022/08/09 03:09:36;;;;;;;15.07;7.60;;;;;;;;;;5009322;28;20562;-67
2022/08/09 03:12:02;;;;;;;17.55;7.95;;;;;;;;;;5009566;28;20172;-67
2022/08/09 03:14:30;;;;;;;;;;;;;;;;;;5009845;28;20441;-67
2022/08/09 03:16:56;;;;;;;15.52;8.13;;;;;;;;;;5009511;28;19948;-67
2022/08/09 03:19:23;;;;;;;16.00;8.05;;;;;;;;;;5010668;28;20500;-68
2022/08/09 03:21:50;;;;;;;13.80;7.78;;;;;;;;;;5013199;28;20041;-67
2022/08/09 03:24:16;;;;;;;15.15;7.88;;;;;;;;;;5013061;28;20133;-68
2022/08/09 03:26:44;;;;;;;12.98;7.65;;;;;;;;;;5013102;28;20244;-68
2022/08/09 03:29:10;;;;;;;14.45;7.60;;;;;;;;;;4995398;28;20191;-67
2022/08/09 03:31:38;;;;;;;13.15;7.30;;;;;;;;;;5012998;28;20140;-68
2022/08/09 03:34:04;;;;;;;15.20;7.75;;;;;;;;;;4995524;28;20316;-67
2022/08/09 03:36:30;;;;;;;14.68;8.23;;;;;;;;;;5012930;28;20122;-67
2022/08/09 03:38:56;;;;;;;16.48;8.13;;;;;;;;;;5012800;28;20133;-67
2022/08/09 03:41:23;;;;;;;16.88;8.80;;;;;;;;;;5012635;28;20434;-68
2022/08/09 03:43:49;;;;;;;;;;;;;;;;;;5013005;28;20446;-68
2022/08/09 03:46:15;;;;;;;14.23;7.93;;;;;;;;;;5027808;28;19933;-68
2022/08/09 03:48:41;;;;;;;16.50;8.48;;;;;;;;;;5012663;28;20145;-68
2022/08/09 03:51:09;;;;;;;15.60;8.07;;;;;;;;;;5012363;28;20133;-68
2022/08/09 03:53:37;;;;;;;14.63;8.10;;;;;;;;;;4994772;28;20115;-68
2022/08/09 03:56:04;;;;;;;12.95;7.55;;;;;;;;;;4994420;28;20106;-67
2022/08/09 03:58:31;;;;;;;13.90;8.30;;;;;;;;;;5011951;28;20133;-67
2022/08/09 04:00:58;;;;;;;16.58;8.13;;;;;;;;;;4994526;28;20358;-67
2022/08/09 04:03:25;;;;;;;16.38;8.45;;;;;;;;;;5011992;28;20052;-68
2022/08/09 04:05:51;;;;;;;17.98;8.82;;;;;;;;;;5012269;28;20088;-67
2022/08/09 04:08:17;;;;;;;18.38;8.52;;;;;;;;;;4993930;28;20386;-67
2022/08/09 04:10:46;;;;;;;15.35;8.35;;;;;;;;;;5012187;28;20061;-67
2022/08/09 04:13:12;;;;;;;;;;;;;;;;;;5012703;28;20045;-67
2022/08/09 04:15:38;;;;;;;15.38;8.85;;;;;;;;;;5011916;28;19997;-67
2022/08/09 04:18:05;;;;;;;14.85;7.40;;;;;;;;;;5012004;28;20057;-67
2022/08/09 04:20:31;;;;;;;16.65;8.60;;;;;;;;;;5012027;28;20378;-67
2022/08/09 04:22:58;;;;;;;13.23;7.72;;;;;;;;;;5012169;28;20045;-67
2022/08/09 04:25:24;;;;;;;17.95;8.15;;;;;;;;;;5011961;28;20042;-68
2022/08/09 04:27:50;;;;;;;15.23;8.30;;;;;;;;;;5012258;28;20073;-67
2022/08/09 04:30:21;;;;;;;14.35;8.27;;;;;;;;;;5011465;28;20049;-67
2022/08/09 04:32:48;;;;;;;15.80;7.70;;;;;;;;;;5011905;28;20122;-67
2022/08/09 04:35:13;;;;;;;;;;;;;;;;;;5012449;28;20148;-67
2022/08/09 04:37:40;;;;;;;14.57;7.13;;;;;;;;;;5010131;28;19983;-67
2022/08/09 04:40:06;;;;;;;;;;;;;;;;;;5012225;28;20053;-67
2022/08/09 04:42:32;;;;;;;13.82;7.53;;;;;;;;;;5011536;28;20234;-68
2022/08/09 04:44:58;;;;;;;15.30;7.50;;;;;;;;;;4993977;28;20049;-67
2022/08/09 04:47:25;;;;;;;15.52;6.97;;;;;;;;;;5011658;28;20065;-68
2022/08/09 04:49:51;;;;;;;14.05;7.43;;;;;;;;;;4993852;28;20054;-67
2022/08/09 04:52:17;;;;;;;12.23;6.53;;;;;;;;;;5012012;28;20081;-67
2022/08/09 04:54:43;;;;;;;;;;;;;;;;;;5011730;28;20076;-67
2022/08/09 04:57:10;;;;;;;13.52;6.25;;;;;;;;;;5010931;28;20330;-68
2022/08/09 04:59:36;;;;;;;13.07;6.30;;;;;;;;;;4993707;28;20123;-67
2022/08/09 05:02:02;;;;;;;;;;;;;;;;;;5011668;28;20054;-67
2022/08/09 05:04:28;;;;;;;14.43;6.40;;;;;;;;;;5011272;28;20008;-67
2022/08/09 05:06:54;;;;;;;11.73;6.15;;;;;;;;;;5011413;28;20487;-67
2022/08/09 05:09:21;;;;;;;13.25;6.55;;;;;;;;;;5011053;28;20479;-67
2022/08/09 05:11:50;;;;;;;15.45;7.45;;;;;;;;;;5011112;28;20038;-67
2022/08/09 05:14:16;;;;;;;13.32;6.50;;;;;;;;;;5010987;28;20081;-67
2022/08/09 05:16:42;;;;;;;13.73;7.18;;;;;;;;;;5010853;28;20050;-67
2022/08/09 05:19:08;;;;;;;15.00;6.45;;;;;;;;;;5011091;28;20104;-67
2022/08/09 05:21:34;;;;;;;14.15;6.90;;;;;;;;;;5011208;28;20167;-67
2022/08/09 05:24:00;;;;;;;16.42;7.20;;;;;;;;;;5011137;28;20057;-67
2022/08/09 05:26:26;;;;;;;14.18;6.57;;;;;;;;;;5011369;28;20084;-67
2022/08/09 05:28:53;;;;;;;14.48;6.47;;;;;;;;;;5010855;28;20133;-68
2022/08/09 05:31:19;;;;;;;;;;;;;;;;;;4994133;28;20050;-67
2022/08/09 05:33:48;;;;;;;15.52;7.05;;;;;;;;;;5011017;28;19932;-67
2022/08/09 05:36:15;;;;;;;15.27;6.88;;;;;;;;;;5011198;28;20431;-67
2022/08/09 05:38:42;;;;;;;12.70;6.32;;;;;;;;;;5010007;28;20335;-67
2022/08/09 05:41:08;;;;;;;15.73;6.68;;;;;;;;;;5010213;28;20136;-67
2022/08/09 05:43:34;;;;;;;14.85;6.97;;;;;;;;;;5010570;28;20049;-67
2022/08/09 05:46:01;;;;;;;16.13;7.18;;;;;;;;;;5010570;28;20069;-67
2022/08/09 05:48:28;;;;;;;16.88;7.03;;;;;;;;;;5010479;28;20053;-67
2022/08/09 05:50:56;;;;;;;14.73;6.60;;;;;;;;;;4993095;28;20480;-67
2022/08/09 05:53:22;;;;;;;14.10;6.90;;;;;;;;;;4992899;28;20538;-67
2022/08/09 05:55:48;;;;;;;;;;;;;;;;;;5011005;28;20142;-67
2022/08/09 05:58:14;;;;;;;15.13;6.40;;;;;;;;;;5010431;28;20337;-67
2022/08/09 06:00:40;;;;;;;13.23;6.15;;;;;;;;;;5010389;28;20387;-68
2022/08/09 06:03:06;;;;;;;13.40;5.90;;;;;;;;;;5010432;28;20145;-67
2022/08/09 06:05:32;;;;;;;;;;;;;;;;;;5010008;28;20080;-67
2022/08/09 06:07:58;;;;;;;12.20;5.45;;;;;;;;;;5010225;28;20356;-67
2022/08/09 06:10:36;;;;;;;;;;;;;;;;;;5010821;28;20145;-67
2022/08/09 06:13:02;;;;;;;;;;;;;;;;;;5010760;28;20303;-66
2022/08/09 06:15:28;;;;;;;15.43;5.63;;;;;;;;;;5009349;28;19921;-67
2022/08/09 06:17:55;;;;;;;14.77;5.55;;;;;;;;;;5010231;28;20049;-67
2022/08/09 06:20:21;;;;;;;13.05;5.10;;;;;;;;;;5010196;28;20149;-67
2022/08/09 06:22:47;;;;;;;14.65;5.25;;;;;;;;;;5010162;28;20042;-67
2022/08/09 06:25:14;;;;;;;13.07;4.95;;;;;;;;;;5010087;28;20050;-68
2022/08/09 06:27:40;;;;;;;11.52;5.20;;;;;;;;;;5010309;28;20116;-67
2022/08/09 06:30:07;;;;;;;14.55;4.70;;;;;;;;;;5009888;28;20057;-67
2022/08/09 06:32:33;;;;;;;11.30;4.93;;;;;;;;;;5009874;28;20153;-67
2022/08/09 06:34:59;;;;;;;10.82;4.65;;;;;;;;;;5009943;28;20069;-67
2022/08/09 06:37:25;;;;;;;10.05;4.40;;;;;;;;;;5009806;28;20048;-67
2022/08/09 06:39:51;;;;;;;13.52;4.10;;;;;;;;;;5009815;28;20054;-68
2022/08/09 06:42:19;;;;;;;13.45;4.28;;;;;;;;;;5009918;28;20136;-67
2022/08/09 06:44:45;;;;;;;11.60;4.20;;;;;;;;;;5009808;28;20062;-67
2022/08/09 06:47:11;;;;;;;11.40;3.90;;;;;;;;;;5009810;28;20046;-67
2022/08/09 06:49:37;;;;;;;11.10;4.18;;;;;;;;;;5009944;28;20145;-66
2022/08/09 06:52:04;;;;;;;11.65;3.72;;;;;;;;;;5009654;28;20409;-67
2022/08/09 06:54:30;;;;;;;12.25;4.00;;;;;;;;;;4994122;28;20124;-67
2022/08/09 06:56:56;;;;;;;10.73;3.40;;;;;;;;;;5013658;28;20056;-67
2022/08/09 06:59:22;;;;;;;10.32;3.80;;;;;;;;;;5013684;28;20072;-67
2022/08/09 07:01:48;;;;;;;8.95;3.40;;;;;;;;;;5013464;28;20042;-67
2022/08/09 07:04:15;;;;;;;9.02;3.10;;;;;;;;;;5014890;28;20397;-66
2022/08/09 07:06:41;;;;;;;8.63;3.25;;;;;;;;;;5014905;28;20052;-67
2022/08/09 07:09:07;;;;;;;10.05;3.60;;;;;;;;;;5013433;28;20132;-67
2022/08/09 07:11:33;;;;;;;8.98;3.47;;;;;;;;;;5013480;28;20106;-68
2022/08/09 07:13:59;;;;;;;11.35;3.95;;;;;;;;;;5013257;28;20386;-69
2022/08/09 07:16:25;;;;;;;12.13;3.90;;;;;;;;;;5013111;28;20060;-68
2022/08/09 07:18:51;;;;;;;13.23;4.18;;;;;;;;;;5013108;28;20081;-67
2022/08/09 07:21:17;;;;;;;13.57;4.25;;;;;;;;;;4994444;28;20046;-67
2022/08/09 07:23:44;;;;;;;10.18;4.55;;;;;;;;;;5012692;28;20125;-68
2022/08/09 07:26:10;;;;;;;;;;;;;;;;;;5013014;28;20061;-68
2022/08/09 07:28:36;;;;;;;12.50;4.15;;;;;;;;;;5012967;28;19926;-68
2022/08/09 07:31:03;;;;;;;11.40;4.57;;;;;;;;;;5012736;28;20352;-68
2022/08/09 07:33:30;;;;;;;11.63;4.00;;;;;;;;;;5012819;28;20042;-68
2022/08/09 07:35:56;;;;;;;10.25;3.83;;;;;;;;;;5012929;28;20054;-68
2022/08/09 07:38:22;;;;;;;10.88;3.70;;;;;;;;;;5012930;28;20053;-68
2022/08/09 07:40:48;;;;;;;;;;;;;;;;;;5013347;28;20516;-70
2022/08/09 07:43:14;;;;;;;10.73;4.00;;;;;;;;;;5012981;28;20036;-68
2022/08/09 07:45:41;;;;;;;9.98;3.50;;;;;;;;;;5012754;28;20104;-68
2022/08/09 07:48:08;;;;;;;10.93;3.65;;;;;;;;;;4995234;28;20093;-68
2022/08/09 07:50:39;;;;;;;9.38;3.60;;;;;;;;;;5012818;28;20103;-69
2022/08/09 07:53:05;;;;;;;10.73;3.65;;;;;;;;;;5012846;28;20421;-67
2022/08/09 07:55:31;;;;;;;;;;;;;;;;;;4995238;28;20370;-67
2022/08/09 07:57:57;;;;;;;11.38;3.50;;;;;;;;;;5012417;28;19922;-68
2022/08/09 08:00:24;;;;;;;11.68;3.75;;;;;;;;;;5012806;28;20119;-68
2022/08/09 08:02:50;;;;;;;8.98;3.03;;;;;;;;;;5012701;28;20050;-68
2022/08/09 08:05:17;;;;;;;8.18;2.90;;;;;;;;;;4993983;28;20049;-68
2022/08/09 08:07:43;;;;;;;;;;;;;;;;;;4995243;28;20435;-67
2022/08/09 08:10:09;;;;;;;10.20;2.70;;;;;;;;;;5012724;28;19928;-68
2022/08/09 08:12:36;;;;;;;8.18;2.58;;;;;;;;;;4995069;28;20104;-68
2022/08/09 08:15:03;;;;;;;11.27;3.10;;;;;;;;;;5012766;28;20104;-67
2022/08/09 08:17:29;;;;;;;8.23;2.60;;;;;;;;;;5012613;28;20100;-68
2022/08/09 08:19:55;;;;;;;;;;;;;;;;;;5012757;28;20123;-66
2022/08/09 08:22:21;;;;;;;6.97;2.35;;;;;;;;;;4994913;28;19941;-67
2022/08/09 08:24:50;;;;;;;7.30;2.42;;;;;;;;;;5011848;28;20508;-67
2022/08/09 08:27:16;;;;;;;10.45;2.65;;;;;;;;;;5012158;28;20539;-67
2022/08/09 08:29:42;;;;;;;;;;;;;;;;;;4995057;28;20100;-67
2022/08/09 08:32:08;;;;;;;7.30;2.35;;;;;;;;;;5011849;28;19921;-67
2022/08/09 08:34:35;;;;;;;10.07;2.85;;;;;;;;;;5012218;28;20050;-67
2022/08/09 08:37:02;;;;;;;7.32;2.40;;;;;;;;;;4994193;28;20054;-67
2022/08/09 08:39:28;;;;;;;6.82;2.55;;;;;;;;;;4994176;28;20071;-68
2022/08/09 08:41:54;;;;;;;9.02;2.88;;;;;;;;;;5012058;28;20049;-67
2022/08/09 08:44:21;;;;;;;8.40;2.58;;;;;;;;;;4994388;28;20124;-68
2022/08/09 08:46:48;;;;;;;9.25;2.50;;;;;;;;;;5011902;28;20505;-68
2022/08/09 08:49:14;;;;;;;5.95;2.40;;;;;;;;;;4977731;28;20065;-67
2022/08/09 08:51:40;;;;;;;;;;;;;;;;;;5011749;28;20320;-69
2022/08/09 08:54:08;;;;;;;9.52;2.55;;;;;;;;;;4993945;28;19991;-68
2022/08/09 08:56:37;;;;;;;8.50;2.40;;;;;;;;;;4977071;28;20136;-68
2022/08/09 08:59:10;;;;;;;7.15;2.30;;;;;;;;;;5011279;28;20397;-69
2022/08/09 09:01:37;;;;;;;10.75;2.30;;;;;;;;;;4993872;28;20510;-68
2022/08/09 09:04:03;;;;;;;8.32;2.80;;;;;;;;;;5011651;28;20461;-68
2022/08/09 09:06:34;;;;;;;6.75;2.10;;;;;;;;;;5011497;28;20073;-69
2022/08/09 09:09:01;;;;;;;8.38;2.10;;;;;;;;;;4993852;28;20056;-69
2022/08/09 09:11:28;;;;;;;8.63;2.22;;;;;;;;;;5011201;28;20057;-67
2022/08/09 09:13:55;;;;;;;7.07;2.60;;;;;;;;;;5011337;28;20057;-67
2022/08/09 09:16:21;;;;;;;11.05;2.30;;;;;;;;;;5011223;28;20062;-68
2022/08/09 09:18:47;;;;;;;;;;;;;;;;;;5011505;28;20057;-70
2022/08/09 09:21:13;;;;;;;10.95;2.47;;;;;;;;;;5011105;28;19929;-68
2022/08/09 09:23:40;;;;;;;;;;;;;;;;;;5011562;28;20108;-73
2022/08/09 09:26:08;;;;;;;7.65;2.08;;;;;;;;;;5010958;28;20483;-67
2022/08/09 09:28:34;;;;;;;7.65;2.13;;;;;;;;;;5010879;28;20045;-69
2022/08/09 09:31:00;;;;;;;7.28;2.30;;;;;;;;;;5010927;28;20129;-68
2022/08/09 09:33:32;;;;;;;9.25;2.65;;;;;;;;;;5010287;28;20439;-68
2022/08/09 09:36:00;;;;;;;8.70;2.20;;;;;;;;;;5011275;28;20111;-68
2022/08/09 09:38:42;;;;;;;10.35;2.70;;;;;;;;;;5010554;28;20049;-67
2022/08/09 09:41:26;;;;;;;6.82;2.15;;;;;;;;;;5010968;28;20144;-67
2022/08/09 09:43:53;;;;;;;9.18;2.28;;;;;;;;;;5010799;28;20050;-68
2022/08/09 09:46:19;;;;;;;8.75;2.28;;;;;;;;;;5010486;28;20149;-68
2022/08/09 09:48:57;;;;;;;6.60;2.30;;;;;;;;;;5010457;28;20050;-67
2022/08/09 09:51:25;;;;;;;4.28;2.00;;;;;;;;;;5010048;28;20046;-69
2022/08/09 09:54:06;;;;;;;6.93;2.20;;;;;;;;;;5010266;28;20235;-68
2022/08/09 09:56:33;;;;;;;6.93;2.20;;;;;;;;;;4993094;28;20077;-72
2022/08/09 09:58:59;;;;;;;7.03;2.30;;;;;;;;;;5010484;28;20145;-71
2022/08/09 10:01:25;;;;;;;;;;;;;;;;;;5010341;28;20049;-78
2022/08/09 10:03:52;;;;;;;6.75;1.90;;;;;;;;;;5010357;28;20071;-68
2022/08/09 10:06:22;;;;;;;4.70;1.90;;;;;;;;;;5010417;28;20163;-68
2022/08/09 10:08:50;;;;;;;10.10;2.15;;;;;;;;;;5010343;28;20050;-70
2022/08/09 10:11:16;;;;;;;5.85;2.00;;;;;;;;;;5010142;28;20442;-68
2022/08/09 10:13:42;;;;;;;6.28;1.67;;;;;;;;;;4991980;28;20060;-67
2022/08/09 10:16:08;;;;;;;;;;;;;;;;;;5010432;28;20069;-72
2022/08/09 10:18:34;;;;;;;3.15;1.55;;;;;;;;;;5010094;28;20317;-72
2022/08/09 10:21:00;;;;;;;;;;;;;;;;;;5010762;28;20415;-70
2022/08/09 10:23:26;;;;;;;4.88;1.67;;;;;;;;;;5024667;28;19935;-69
2022/08/09 10:25:53;;;;;;;5.50;1.90;;;;;;;;;;5009988;28;20056;-68
2022/08/09 10:28:22;;;;;;;4.30;1.58;;;;;;;;;;5009573;28;20046;-73
2022/08/09 10:30:48;;;;;;;4.45;1.75;;;;;;;;;;5010441;28;20049;-67
2022/08/09 10:33:14;;;;;;;;;;;;;;;;;;5010182;28;20045;-69
2022/08/09 10:35:41;;;;;;;2.87;1.50;;;;;;;;;;5010115;28;20199;-70
2022/08/09 10:38:07;;;;;;;2.83;1.60;;;;;;;;;;5009793;28;20050;-70
2022/08/09 10:40:35;;;;;;;4.53;1.70;;;;;;;;;;5009929;28;20078;-71
2022/08/09 10:43:01;;;;;;;4.28;1.55;;;;;;;;;;5009960;28;20053;-67
2022/08/09 10:45:27;;;;;;;;;;;;;;;;;;4992628;28;20466;-68
2022/08/09 10:47:58;;;;;;;5.45;1.60;;;;;;;;;;5024731;28;20040;-67
2022/08/09 10:51:05;;;;;;;3.72;1.63;;;;;;;;;;5009861;28;20460;-68
2022/08/09 10:53:27;;;;;;;5.03;1.60;;;;;;;;;;5009202;28;20046;-67
2022/08/09 10:56:13;;;;;;;5.43;1.40;;;;;;;;;;5009690;28;20076;-65
2022/08/09 10:58:39;;;;;;;4.22;1.80;;;;;;;;;;5010006;28;20144;-67
2022/08/09 11:01:05;;;;;;;;;;;;;;;;;;4992687;28;20065;-67
2022/08/09 11:03:32;;;;;;;4.22;1.52;;;;;;;;;;5024554;28;19925;-66
2022/08/09 11:06:24;;;;;;;7.82;1.80;;;;;;;;;;5009809;28;20089;-67
2022/08/09 11:08:56;;;;;;;4.00;1.60;;;;;;;;;;5007963;28;20065;-67
2022/08/09 11:11:22;;;;;;;;;;;;;;;;;;5009970;28;20046;-66
2022/08/09 11:14:08;;;;;;;4.60;1.60;;;;;;;;;;5009701;28;19921;-67
2022/08/09 11:16:34;;;;;;;3.90;1.70;;;;;;;;;;5009412;28;20057;-65
2022/08/09 11:19:00;;;;;;;;;;;;;;;;;;5010010;28;20120;-67
2022/08/09 11:21:44;;;;;;;4.38;1.70;;;;;;;;;;5009709;28;19925;-67
2022/08/09 11:24:12;;;;;;;2.92;1.38;;;;;;;;;;4991797;28;20075;-68
2022/08/09 11:26:38;;;;;;;3.88;1.48;;;;;;;;;;5009697;28;20072;-68
2022/08/09 11:29:04;;;;;;;5.75;1.60;;;;;;;;;;5009910;28;20476;-67
2022/08/09 11:31:40;;;;;;;5.00;1.60;;;;;;;;;;4991941;28;20152;-67
2022/08/09 11:34:10;;;;;;;4.70;1.65;;;;;;;;;;5009608;28;20064;-68
2022/08/09 11:36:42;;;;;;;4.55;1.70;;;;;;;;;;5009104;28;20446;-67
2022/08/09 11:39:09;;;;;;;4.25;1.63;;;;;;;;;;4992207;28;20141;-69
2022/08/09 11:41:35;;;;;;;4.82;1.60;;;;;;;;;;5012346;28;20068;-69
2022/08/09 11:44:01;;;;;;;3.30;1.50;;;;;;;;;;5013069;28;20128;-68
2022/08/09 11:46:27;;;;;;;;;;;;;;;;;;4995238;28;20497;-69
2022/08/09 11:48:56;;;;;;;3.42;1.55;;;;;;;;;;5013015;28;20012;-68
2022/08/09 11:51:26;;;;;;;4.80;1.83;;;;;;;;;;5012154;28;20054;-69
2022/08/09 11:54:10;;;;;;;3.72;1.50;;;;;;;;;;5013001;28;20057;-68
2022/08/09 11:56:36;;;;;;;5.43;1.90;;;;;;;;;;4994387;28;20061;-69
2022/08/09 11:59:02;;;;;;;5.20;1.80;;;;;;;;;;5012568;28;20132;-73
2022/08/09 12:01:28;;;;;;;;;;;;;;;;;;5013049;28;20192;-70
2022/08/09 12:03:58;;;;;;;6.18;1.70;;;;;;;;;;4994599;28;20012;-69
2022/08/09 12:06:25;;;;;;;5.63;1.80;;;;;;;;;;5012515;28;20045;-69
2022/08/09 12:08:53;;;;;;;4.40;1.65;;;;;;;;;;5012503;28;20058;-69
2022/08/09 12:11:20;;;;;;;3.30;1.50;;;;;;;;;;5012369;28;20497;-67
2022/08/09 12:13:48;;;;;;;6.43;1.90;;;;;;;;;;5012378;28;20451;-70
2022/08/09 12:16:38;;;;;;;8.60;1.90;;;;;;;;;;5012375;28;20201;-68
2022/08/09 12:19:05;;;;;;;7.85;2.00;;;;;;;;;;5002187;28;20061;-68
2022/08/09 12:21:31;;;;;;;6.75;1.90;;;;;;;;;;5012402;28;20064;-69
2022/08/09 12:24:00;;;;;;;4.80;1.73;;;;;;;;;;5012137;28;20042;-68
2022/08/09 12:26:36;;;;;;;3.90;1.85;;;;;;;;;;5012209;28;20120;-68
2022/08/09 12:29:02;;;;;;;3.90;1.80;;;;;;;;;;5011919;28;20360;-67
2022/08/09 12:31:28;;;;;;;4.88;1.88;;;;;;;;;;4994389;28;20280;-71
2022/08/09 12:33:54;;;;;;;;;;;;;;;;;;5012515;28;20082;-72
2022/08/09 12:36:22;;;;;;;3.80;1.90;;;;;;;;;;5012013;28;19932;-68
2022/08/09 12:38:48;;;;;;;4.28;1.75;;;;;;;;;;5012005;28;20072;-70
2022/08/09 12:41:14;;;;;;;4.30;1.77;;;;;;;;;;5011989;28;20046;-69
2022/08/09 12:43:41;;;;;;;6.35;1.73;;;;;;;;;;4994161;28;20052;-69
2022/08/09 12:46:08;;;;;;;6.57;1.83;;;;;;;;;;5011701;28;20049;-66
2022/08/09 12:48:35;;;;;;;7.13;2.00;;;;;;;;;;5012013;28;20430;-70
2022/08/09 12:51:01;;;;;;;5.97;1.85;;;;;;;;;;5011671;28;20062;-69
2022/08/09 12:53:37;;;;;;;5.10;1.92;;;;;;;;;;5011992;28;20444;-68
2022/08/09 12:56:24;;;;;;;4.60;1.80;;;;;;;;;;5011818;28;20477;-70
2022/08/09 12:59:05;;;;;;;6.28;1.80;;;;;;;;;;5011318;28;20093;-68
2022/08/09 13:01:32;;;;;;;4.60;1.77;;;;;;;;;;5011415;28;20065;-68
2022/08/09 13:04:02;;;;;;;5.55;1.80;;;;;;;;;;5011757;28;20041;-68
2022/08/09 13:06:30;;;;;;;3.75;1.75;;;;;;;;;;5011845;28;20049;-70
2022/08/09 13:09:00;;;;;;;5.07;1.75;;;;;;;;;;4994100;28;20450;-71
2022/08/09 13:11:30;;;;;;;3.95;1.83;;;;;;;;;;5011576;28;20068;-69
2022/08/09 13:13:56;;;;;;;3.55;1.70;;;;;;;;;;5011194;28;20054;-71
2022/08/09 13:16:37;;;;;;;4.38;1.65;;;;;;;;;;4993438;28;20447;-70
2022/08/09 13:19:03;;;;;;;4.47;1.77;;;;;;;;;;5010934;28;20516;-71
2022/08/09 13:21:29;;;;;;;5.80;1.90;;;;;;;;;;5011008;28;20108;-70
2022/08/09 13:23:59;;;;;;;4.95;1.90;;;;;;;;;;4993272;28;20049;-82
2022/08/09 13:26:41;;;;;;;4.72;1.70;;;;;;;;;;5010877;28;20111;-70
2022/08/09 13:29:14;;;;;;;4.15;1.77;;;;;;;;;;5010752;28;20514;-70
2022/08/09 13:31:59;;;;;;;2.80;1.58;;;;;;;;;;4992992;28;20058;-70
2022/08/09 13:34:26;;;;;;;5.57;1.90;;;;;;;;;;4991789;28;20145;-71
2022/08/09 13:36:52;;;;;;;6.28;1.90;;;;;;;;;;5010388;28;20501;-66
2022/08/09 13:39:20;;;;;;;5.00;1.67;;;;;;;;;;5010419;28;20509;-67
2022/08/09 13:41:46;;;;;;;3.17;1.63;;;;;;;;;;4992559;28;20060;-69
2022/08/09 13:44:12;;;;;;;3.50;1.58;;;;;;;;;;5010148;28;20045;-67
2022/08/09 13:46:39;;;;;;;4.18;1.70;;;;;;;;;;5010252;28;20488;-67
2022/08/09 13:49:08;;;;;;;4.35;1.60;;;;;;;;;;5010382;28;20049;-66
2022/08/09 13:51:37;;;;;;;4.15;1.60;;;;;;;;;;5010280;28;20472;-76
2022/08/09 13:54:07;;;;;;;5.07;1.50;;;;;;;;;;5010464;28;20117;-67
2022/08/09 13:56:33;;;;;;;4.13;1.63;;;;;;;;;;5010925;28;20061;-68
2022/08/09 13:59:00;;;;;;;5.75;1.98;;;;;;;;;;5009994;28;20053;-66
2022/08/09 14:01:29;;;;;;;4.95;1.70;;;;;;;;;;5009429;28;20200;-66
2022/08/09 14:03:55;;;;;;;3.80;1.80;;;;;;;;;;5009897;28;20133;-66
2022/08/09 14:06:22;;;;;;;;;;;;;;;;;;5010938;28;20046;-67
2022/08/09 14:08:48;;;;;;;5.15;1.77;;;;;;;;;;5010644;28;20096;-66
2022/08/09 14:11:14;;;;;;;;;;;;;;;;;;5010661;28;20157;-65
2022/08/09 14:13:40;;;;;;;4.07;1.55;;;;;;;;;;5025511;28;20038;-71
2022/08/09 14:16:07;;;;;;;3.03;1.50;;;;;;;;;;5010392;28;20132;-66
2022/08/09 14:18:35;;;;;;;5.97;1.65;;;;;;;;;;5010304;28;20547;-66
2022/08/09 14:21:01;;;;;;;4.50;1.70;;;;;;;;;;5010286;28;20049;-67
2022/08/09 14:23:27;;;;;;;;;;;;;;;;;;4991637;28;20069;-66
2022/08/09 14:25:53;;;;;;;2.72;1.55;;;;;;;;;;5009976;28;19976;-66
2022/08/09 14:28:19;;;;;;;;;;;;;;;;;;5010475;28;20093;-65
2022/08/09 14:30:45;;;;;;;4.30;1.77;;;;;;;;;;5009839;28;19984;-69
2022/08/09 14:33:11;;;;;;;4.40;1.70;;;;;;;;;;5010479;28;20098;-67
2022/08/09 14:35:37;;;;;;;4.60;1.63;;;;;;;;;;5010673;28;20041;-67
2022/08/09 14:38:03;;;;;;;4.80;1.70;;;;;;;;;;5009248;28;20178;-67
2022/08/09 14:40:30;;;;;;;;;;;;;;;;;;5009854;28;20129;-67
2022/08/09 14:42:56;;;;;;;5.07;1.90;;;;;;;;;;5010229;28;20011;-68
2022/08/09 14:45:22;;;;;;;;;;;;;;;;;;5010569;28;20284;-67
2022/08/09 14:47:48;;;;;;;4.32;2.05;;;;;;;;;;5010001;28;19921;-66
2022/08/09 14:50:14;;;;;;;5.78;1.70;;;;;;;;;;5009934;28;20088;-66
2022/08/09 14:52:40;;;;;;;4.80;1.60;;;;;;;;;;4990408;28;20061;-68